岡山グライダークラブ活動状況掲示板あなたは無料カウンター人目の訪問者です

岡山グライダークラブ
岡山市浦安南町639-1 岡南飛行場
 使用機:シャイベ式 SF25C型 ファルケ   JA2330
      ヴァレンティン式17E型 タイフーン  JA2342
 練習日:毎日曜日  クラブルーム:電話 086-265-1810
この掲示板は岡山グライダークラブの活動状況をお知らせする掲示板です。
!!!この掲示板は投稿規制をしています。!!!
クラブ関連各種情報は 岡山グライダークラブクラブルーム      を       .
  ブリーフイング情報は  岡山グライダークラブブリーフィングルーム  をご覧下さい。 .
※写真はクリックすると拡大して見ることが出来ます。
岡南飛行場へのアクセス等は 岡南飛行場管理事務所 をご覧ください。
クラブの ホームページ ができました。

 
10月11日
by OGC at 2020/10/11(日) 21:41:02 No.20201011213638  削除コメント
1024 x 768 x 90,594バイト
No.1

10月11日
本日の参加者
  会員      14名
  その他      1名


@本日の様子






METAR
RJBK 110100Z 15005KT 120V150 30KM FEW030CU 23/17 Q1013 A2992
RJOB 110100Z 31006KT 260V030 9999 FEW020 SCT025 23/17 Q1013
RJOT 110100Z 30005KT 9999 FEW020 22/17 Q1014
RJOA 110100Z VRB02KT 9999 FEW025 21/15 Q1014
TAF
RJOB RJOB 102312Z 1100/1206 01006KT 9999 FEW020 SCT040
     BECMG 1200/1203 24005KT
RJOT 102308Z 1100/1206 32005KT 9999 FEW015 BKN040
     BECMG 1112/1115 15006KT
     BECMG 1200/1203 32005KT
RJOA 102305Z 1100/1206 34005KT 9999 FEW020 BKN035
     BECMG 1101/1103 16005KT
     BECMG 1108/1110 35008KT

本日は一時、雲が減りサーマルを期待しましたが、すぐ雲が多くなり穏やかな一日となりました。
訓練生はサーマルソアリングやNAV訓練、ライセンサーはいつも通り周辺を短くフライトしていました。
また、本日、見学者1名が体験飛行をされました。


解散    17:50

1番機  11:20離陸 撤収機  17:25着陸 

SF25C JA2330 ファルケ     08Flt.3h50min  
17E   JA2342 タイフーン    04Flt.1h00min  
合計                    10Flt.4h50min

    << 戻る || ホームページ || 最新の掲示板へ